createdAt,value
2018-11-12T00:00:35.495Z,96671.45
2018-11-12T00:03:03.964Z,96680.34
2018-11-12T00:05:32.283Z,96677.58
2018-11-12T00:08:00.923Z,96682.20
2018-11-12T00:10:29.891Z,96684.52
2018-11-12T00:12:58.207Z,96686.63
2018-11-12T00:15:26.527Z,96683.67
2018-11-12T00:17:54.859Z,96674.83
2018-11-12T00:20:23.151Z,96664.11
2018-11-12T00:22:51.487Z,96656.08
2018-11-12T00:25:19.787Z,96656.16
2018-11-12T00:27:48.111Z,96654.00
2018-11-12T00:30:17.771Z,96653.55
2018-11-12T00:32:46.984Z,96641.88
2018-11-12T00:35:15.767Z,96646.05
2018-11-12T00:37:44.788Z,96648.61
2018-11-12T00:40:14.372Z,96663.41
2018-11-12T00:42:43.383Z,96659.70
2018-11-12T00:45:12.052Z,96663.77
2018-11-12T00:47:40.375Z,96668.56
2018-11-12T00:50:09.863Z,96660.30
2018-11-12T00:52:38.323Z,96663.02
2018-11-12T00:55:07.383Z,96660.38
2018-11-12T00:57:35.678Z,96663.07
2018-11-12T01:00:04.115Z,96664.13
2018-11-12T01:02:32.424Z,96667.64
2018-11-12T01:05:00.808Z,96665.78
2018-11-12T01:07:29.135Z,96655.06
2018-11-12T01:09:57.430Z,96658.28
2018-11-12T01:12:26.132Z,96652.67
2018-11-12T01:14:55.235Z,96659.39
2018-11-12T01:17:23.535Z,96659.92
2018-11-12T01:19:52.358Z,96655.63
2018-11-12T01:22:21.652Z,96651.86
2018-11-12T01:24:49.953Z,96658.05
2018-11-12T01:27:18.255Z,96646.50
2018-11-12T01:29:46.563Z,96651.34
2018-11-12T01:32:14.867Z,96653.48
2018-11-12T01:34:43.186Z,96652.96
2018-11-12T01:37:12.580Z,96644.89
2018-11-12T01:39:40.903Z,96636.00
2018-11-12T01:42:09.682Z,96620.14
2018-11-12T01:44:37.927Z,96619.35
2018-11-12T01:47:06.235Z,96623.64
2018-11-12T01:49:34.566Z,96624.46
2018-11-12T01:52:02.924Z,96615.31
2018-11-12T01:54:31.246Z,96619.38
2018-11-12T01:56:59.598Z,96622.34
2018-11-12T01:59:27.931Z,96619.09
2018-11-12T02:01:56.675Z,96617.75
2018-11-12T02:04:25.003Z,96611.58
2018-11-12T02:06:54.003Z,96609.94
2018-11-12T02:09:22.337Z,96615.84
2018-11-12T02:11:50.648Z,96612.91
2018-11-12T02:14:18.947Z,96613.97
2018-11-12T02:16:47.745Z,96619.07
2018-11-12T02:19:16.091Z,96617.72
2018-11-12T02:21:44.383Z,96623.08
2018-11-12T02:24:13.767Z,96616.66
2018-11-12T02:26:42.070Z,96611.55
2018-11-12T02:29:10.434Z,96606.44
2018-11-12T02:31:39.480Z,96600.77
2018-11-12T02:34:07.783Z,96594.03
2018-11-12T02:36:36.339Z,96600.48
2018-11-12T02:39:08.027Z,96593.98
2018-11-12T02:41:36.355Z,96594.28
2018-11-12T02:44:06.494Z,96588.06
2018-11-12T02:46:35.255Z,96584.30
2018-11-12T02:49:03.568Z,96593.73
2018-11-12T02:51:32.785Z,96590.23
2018-11-12T02:54:01.369Z,96584.04
2018-11-12T02:56:30.109Z,96597.52
2018-11-12T02:58:58.432Z,96601.53
2018-11-12T03:01:27.087Z,96587.55
2018-11-12T03:03:55.847Z,96594.00
2018-11-12T03:06:24.236Z,96585.64
2018-11-12T03:08:52.621Z,96588.33
2018-11-12T03:11:20.935Z,96598.33
2018-11-12T03:13:49.263Z,96602.09
2018-11-12T03:16:17.995Z,96602.06
2018-11-12T03:18:46.869Z,96592.66
2018-11-12T03:21:15.167Z,96598.83
2018-11-12T03:23:43.719Z,96596.44
2018-11-12T03:26:12.077Z,96578.42
2018-11-12T03:28:40.564Z,96570.00
2018-11-12T03:31:09.264Z,96567.33
2018-11-12T03:33:37.567Z,96571.61
2018-11-12T03:36:06.288Z,96569.20
2018-11-12T03:38:35.042Z,96565.16
2018-11-12T03:41:03.412Z,96555.18
2018-11-12T03:43:31.715Z,96551.68
2018-11-12T03:46:00.053Z,96555.16
2018-11-12T03:48:28.343Z,96557.11
2018-11-12T03:50:57.407Z,96552.25
2018-11-12T03:53:26.863Z,96557.59
2018-11-12T03:55:55.187Z,96557.03
2018-11-12T03:58:23.479Z,96557.03
2018-11-12T04:00:52.823Z,96555.95
2018-11-12T04:03:21.655Z,96554.64
2018-11-12T04:05:50.199Z,96554.83
2018-11-12T04:08:18.518Z,96550.06
2018-11-12T04:10:46.810Z,96555.39
2018-11-12T04:13:15.518Z,96549.47
2018-11-12T04:15:43.803Z,96550.28
2018-11-12T04:19:14.374Z,96557.30
2018-11-12T04:21:43.151Z,96556.41
2018-11-12T04:24:11.765Z,96559.64
2018-11-12T04:26:40.063Z,96562.66
2018-11-12T04:29:08.721Z,96573.96
2018-11-12T04:31:38.007Z,96569.63
2018-11-12T04:34:06.598Z,96570.11
2018-11-12T04:36:34.905Z,96570.11
2018-11-12T04:39:03.496Z,96565.50
2018-11-12T04:41:31.795Z,96563.31
2018-11-12T04:44:00.109Z,96563.05
2018-11-12T04:46:28.455Z,96561.43
2018-11-12T04:48:56.776Z,96571.13
2018-11-12T04:51:25.299Z,96565.70
2018-11-12T04:53:53.742Z,96553.59
2018-11-12T04:56:22.374Z,96563.28
2018-11-12T04:58:51.383Z,96567.05
2018-11-12T05:01:19.871Z,96561.94
2018-11-12T05:03:48.302Z,96558.23
2018-11-12T05:06:16.883Z,96557.66
2018-11-12T05:08:45.248Z,96560.56
2018-11-12T05:11:13.711Z,96564.86
2018-11-12T05:13:42.967Z,96566.21
2018-11-12T05:16:11.247Z,96575.60
2018-11-12T05:18:39.925Z,96573.67
2018-11-12T05:21:08.235Z,96583.07
2018-11-12T05:23:36.563Z,96580.65
2018-11-12T05:26:04.880Z,96578.26
2018-11-12T05:28:33.212Z,96567.95
2018-11-12T05:31:01.504Z,96565.35
2018-11-12T05:33:29.815Z,96564.00
2018-11-12T05:35:58.571Z,96568.06
2018-11-12T05:38:27.213Z,96560.01
2018-11-12T05:40:55.978Z,96553.33
2018-11-12T05:43:24.304Z,96557.82
2018-11-12T05:45:52.631Z,96553.36
2018-11-12T05:48:20.954Z,96554.94
2018-11-12T05:50:49.598Z,96553.58
2018-11-12T05:53:18.679Z,96558.70
2018-11-12T05:55:47.011Z,96563.78
2018-11-12T05:58:15.332Z,96558.93
2018-11-12T06:00:43.675Z,96559.74
2018-11-12T06:03:12.210Z,96559.17
2018-11-12T06:05:40.519Z,96560.52
2018-11-12T06:08:08.819Z,96570.56
2018-11-12T06:10:37.207Z,96570.52
2018-11-12T06:13:05.682Z,96573.52
2018-11-12T06:15:33.995Z,96583.67
2018-11-12T06:18:02.697Z,96588.38
2018-11-12T06:20:32.203Z,96588.84
2018-11-12T06:23:00.572Z,96587.08
2018-11-12T06:25:30.356Z,96600.60
2018-11-12T06:27:58.854Z,96592.98
2018-11-12T06:30:28.643Z,96600.83
2018-11-12T06:32:56.947Z,96599.72
2018-11-12T06:35:25.288Z,96605.78
2018-11-12T06:37:54.024Z,96610.09
2018-11-12T06:40:23.502Z,96600.11
2018-11-12T06:42:52.026Z,96610.54
2018-11-12T06:45:21.526Z,96610.03
2018-11-12T06:47:50.878Z,96604.64
2018-11-12T06:50:20.423Z,96607.30
2018-11-12T06:52:48.803Z,96611.92
2018-11-12T06:55:17.710Z,96612.33
2018-11-12T06:57:46.436Z,96614.17
2018-11-12T07:00:16.960Z,96610.22
2018-11-12T07:03:47.930Z,96628.86
2018-11-12T07:06:16.244Z,96617.63
2018-11-12T07:08:44.533Z,96629.94
2018-11-12T07:11:12.864Z,96629.67
2018-11-12T07:13:41.182Z,96626.44
2018-11-12T07:16:09.507Z,96645.67
2018-11-12T07:18:37.836Z,96632.00
2018-11-12T07:21:06.303Z,96640.80
2018-11-12T07:23:34.607Z,96643.88
2018-11-12T07:26:02.969Z,96633.03
2018-11-12T07:28:31.280Z,96627.38
2018-11-12T07:30:59.646Z,96623.05
2018-11-12T07:33:27.927Z,96622.39
2018-11-12T07:35:56.256Z,96627.89
2018-11-12T07:38:24.923Z,96626.86
2018-11-12T07:40:53.243Z,96629.02
2018-11-12T07:43:21.540Z,96633.63
2018-11-12T07:45:49.873Z,96640.19
2018-11-12T07:48:18.164Z,96647.73
2018-11-12T07:50:46.475Z,96647.31
2018-11-12T07:53:14.826Z,96634.83
2018-11-12T07:55:43.142Z,96638.33
2018-11-12T07:58:11.440Z,96638.70
2018-11-12T08:00:39.755Z,96646.42
2018-11-12T08:03:09.321Z,96640.23
2018-11-12T08:05:38.049Z,96644.11
2018-11-12T08:08:06.811Z,96640.27
2018-11-12T08:10:35.168Z,96650.41
2018-11-12T08:13:03.531Z,96655.56
2018-11-12T08:15:31.856Z,96658.22
2018-11-12T08:18:00.199Z,96659.13
2018-11-12T08:20:28.559Z,96661.41
2018-11-12T08:22:56.911Z,96653.58
2018-11-12T08:25:25.232Z,96658.30
2018-11-12T08:27:53.548Z,96669.05
2018-11-12T08:30:23.107Z,96673.17
2018-11-12T08:32:52.648Z,96661.77
2018-11-12T08:35:20.988Z,96667.22
2018-11-12T08:37:49.830Z,96669.11
2018-11-12T08:40:19.367Z,96669.09
2018-11-12T08:42:47.675Z,96663.77
2018-11-12T08:45:16.023Z,96663.23
2018-11-12T08:47:45.787Z,96665.25
2018-11-12T08:50:16.041Z,96658.14
2018-11-12T08:52:45.420Z,96662.19
2018-11-12T08:55:15.389Z,96657.72
2018-11-12T08:57:45.355Z,96675.92
2018-11-12T09:00:13.967Z,96655.56
2018-11-12T09:02:42.619Z,96656.67
2018-11-12T09:05:12.971Z,96673.39
2018-11-12T09:07:42.351Z,96662.37
2018-11-12T09:10:15.701Z,96662.87
2018-11-12T09:12:44.315Z,96671.37
2018-11-12T09:15:13.031Z,96682.79
2018-11-12T09:17:42.119Z,96663.41
2018-11-12T09:20:12.682Z,96671.79
2018-11-12T09:22:41.039Z,96666.62
2018-11-12T09:25:12.816Z,96663.52
2018-11-12T09:27:41.218Z,96677.87
2018-11-12T09:30:12.012Z,96684.06
2018-11-12T09:32:40.971Z,96671.27
2018-11-12T09:35:10.691Z,96680.27
2018-11-12T09:37:39.005Z,96681.92
2018-11-12T09:40:10.655Z,96682.60
2018-11-12T09:42:38.976Z,96700.03
2018-11-12T09:45:07.880Z,96686.55
2018-11-12T09:47:36.457Z,96679.70
2018-11-12T09:50:05.232Z,96684.91
2018-11-12T09:52:33.552Z,96696.02
2018-11-12T09:55:02.135Z,96681.48
2018-11-12T09:57:30.466Z,96685.56
2018-11-12T09:59:58.793Z,96682.24
2018-11-12T10:02:27.942Z,96690.95
2018-11-12T10:04:56.773Z,96691.05
2018-11-12T10:07:25.489Z,96687.30
2018-11-12T10:09:54.303Z,96695.84
2018-11-12T10:12:23.608Z,96697.38
2018-11-12T10:14:51.039Z,96692.80
2018-11-12T10:17:20.336Z,96695.42
2018-11-12T10:19:45.624Z,96699.80
2018-11-12T10:22:13.891Z,96705.88
2018-11-12T10:24:42.182Z,96698.64
2018-11-12T10:27:10.571Z,96693.74
2018-11-12T10:29:38.891Z,96696.10
2018-11-12T10:32:07.244Z,96676.80
2018-11-12T10:34:35.537Z,96688.23
2018-11-12T10:37:03.856Z,96696.70
2018-11-12T10:39:32.556Z,96690.16
2018-11-12T10:42:00.880Z,96690.73
2018-11-12T10:44:29.171Z,96694.03
2018-11-12T10:46:57.491Z,96696.05
2018-11-12T10:49:25.800Z,96698.48
2018-11-12T10:51:54.129Z,96700.75
2018-11-12T10:54:22.538Z,96701.24
2018-11-12T10:56:50.788Z,96699.18
2018-11-12T10:59:19.080Z,96698.00
2018-11-12T11:01:53.364Z,96709.78
2018-11-12T11:04:22.915Z,96708.08
2018-11-12T11:06:51.233Z,96706.02
2018-11-12T11:09:19.579Z,96708.13
2018-11-12T11:11:47.928Z,96710.66
2018-11-12T11:14:16.460Z,96713.11
2018-11-12T11:16:44.792Z,96705.05
2018-11-12T11:19:13.071Z,96714.69
2018-11-12T11:21:41.382Z,96706.85
2018-11-12T11:24:10.067Z,96710.30
2018-11-12T11:26:38.411Z,96707.64
2018-11-12T11:29:06.771Z,96709.80
2018-11-12T11:31:35.075Z,96714.83
2018-11-12T11:34:03.399Z,96717.24
2018-11-12T11:36:31.719Z,96718.52
2018-11-12T11:39:00.025Z,96709.41
2018-11-12T11:41:28.440Z,96710.53
2018-11-12T11:43:57.644Z,96710.91
2018-11-12T11:46:25.907Z,96707.94
2018-11-12T11:48:54.278Z,96720.31
2018-11-12T11:51:22.711Z,96704.52
2018-11-12T11:53:51.031Z,96706.79
2018-11-12T11:56:19.393Z,96707.42
2018-11-12T11:58:47.691Z,96702.64
2018-11-12T12:01:15.987Z,96701.42
2018-11-12T12:03:44.299Z,96703.22
2018-11-12T12:06:12.600Z,96708.10
2018-11-12T12:08:40.973Z,96711.45
2018-11-12T12:11:09.684Z,96718.20
2018-11-12T12:13:38.040Z,96715.91
2018-11-12T12:16:06.319Z,96714.03
2018-11-12T12:18:34.681Z,96714.97
2018-11-12T12:21:03.027Z,96714.58
2018-11-12T12:23:31.303Z,96720.43
2018-11-12T12:25:59.997Z,96712.95
2018-11-12T12:28:28.298Z,96711.92
2018-11-12T12:30:56.607Z,96707.14
2018-11-12T12:33:24.924Z,96700.23
2018-11-12T12:35:53.282Z,96709.04
2018-11-12T12:38:21.556Z,96710.84
2018-11-12T12:40:49.855Z,96702.59
2018-11-12T12:43:18.179Z,96710.53
2018-11-12T12:45:46.674Z,96700.91
2018-11-12T12:48:14.843Z,96699.95
2018-11-12T12:50:43.124Z,96715.26
2018-11-12T12:53:11.435Z,96725.72
2018-11-12T12:55:39.892Z,96710.73
2018-11-12T12:58:08.135Z,96722.13
2018-11-12T13:00:36.427Z,96733.75
2018-11-12T13:03:04.763Z,96727.59
2018-11-12T13:05:33.092Z,96714.92
2018-11-12T13:08:01.414Z,96724.23
2018-11-12T13:10:29.747Z,96719.84
2018-11-12T13:12:58.039Z,96710.13
2018-11-12T13:15:26.371Z,96710.13
2018-11-12T13:17:54.672Z,96717.84
2018-11-12T13:20:24.280Z,96720.09
2018-11-12T13:22:52.603Z,96717.93
2018-11-12T13:25:20.919Z,96716.34
2018-11-12T13:27:49.419Z,96706.84
2018-11-12T13:30:19.178Z,96711.41
2018-11-12T13:32:48.122Z,96709.30
2018-11-12T13:35:17.859Z,96727.70
2018-11-12T13:37:46.165Z,96721.58
2018-11-12T13:40:16.111Z,96719.53
2018-11-12T13:42:45.949Z,96714.68
2018-11-12T13:45:14.308Z,96723.33
2018-11-12T13:47:42.713Z,96725.03
2018-11-12T13:50:14.972Z,96739.14
2018-11-12T13:52:43.426Z,96718.64
2018-11-12T13:55:12.980Z,96724.88
2018-11-12T13:57:41.275Z,96720.42
2018-11-12T14:00:12.565Z,96720.88
2018-11-12T14:02:41.216Z,96714.17
2018-11-12T14:05:11.635Z,96720.55
2018-11-12T14:07:40.108Z,96718.23
2018-11-12T14:10:09.691Z,96721.45
2018-11-12T14:12:38.395Z,96719.19
2018-11-12T14:15:09.783Z,96720.59
2018-11-12T14:17:38.363Z,96725.12
2018-11-12T14:20:07.209Z,96714.97
2018-11-12T14:22:36.003Z,96715.35
2018-11-12T14:25:04.491Z,96723.02
2018-11-12T14:27:32.857Z,96721.30
2018-11-12T14:30:01.135Z,96724.20
2018-11-12T14:32:30.247Z,96737.28
2018-11-12T14:34:58.538Z,96738.83
2018-11-12T14:37:26.908Z,96738.73
2018-11-12T14:39:55.636Z,96743.32
2018-11-12T14:42:23.971Z,96749.01
2018-11-12T14:44:52.275Z,96755.80
2018-11-12T14:47:20.589Z,96755.29
2018-11-12T14:49:48.895Z,96760.20
2018-11-12T14:52:17.631Z,96755.19
2018-11-12T14:54:45.919Z,96763.72
2018-11-12T14:57:14.231Z,96767.89
2018-11-12T14:59:42.520Z,96772.66
2018-11-12T15:02:10.831Z,96772.98
2018-11-12T15:04:39.132Z,96779.25
2018-11-12T15:07:07.492Z,96772.67
2018-11-12T15:09:35.792Z,96774.97
2018-11-12T15:12:04.263Z,96786.48
2018-11-12T15:14:33.003Z,96803.62
2018-11-12T15:17:01.339Z,96835.50
2018-11-12T15:19:29.715Z,96872.37
2018-11-12T15:21:58.040Z,96875.60
2018-11-12T15:24:26.331Z,96862.89
2018-11-12T15:26:54.635Z,96851.22
2018-11-12T15:29:23.038Z,96851.89
2018-11-12T15:31:51.332Z,96848.75
2018-11-12T15:34:19.656Z,96848.75
2018-11-12T15:36:48.084Z,96860.14
2018-11-12T15:39:16.304Z,96869.39
2018-11-12T15:41:44.636Z,96861.25
2018-11-12T15:44:12.948Z,96860.14
2018-11-12T15:46:41.292Z,96855.63
2018-11-12T15:49:09.611Z,96854.81
2018-11-12T15:51:37.903Z,96846.72
2018-11-12T15:54:06.750Z,96850.61
2018-11-12T15:56:35.055Z,96851.19
2018-11-12T15:59:03.499Z,96847.95
2018-11-12T16:01:31.827Z,96854.45
2018-11-12T16:04:00.147Z,96852.56
2018-11-12T16:06:28.570Z,96851.02
2018-11-12T16:08:56.805Z,96851.05
2018-11-12T16:11:25.113Z,96854.04
2018-11-12T16:13:53.427Z,96855.92
2018-11-12T16:16:21.735Z,96858.14
2018-11-12T16:18:50.039Z,96859.52
2018-11-12T16:21:18.327Z,96868.44
2018-11-12T16:23:46.687Z,96866.55
2018-11-12T16:26:14.979Z,96870.34
2018-11-12T16:28:43.292Z,96872.50
2018-11-12T16:31:11.596Z,96867.11
2018-11-12T16:33:39.924Z,96873.51
2018-11-12T16:36:08.228Z,96874.86
2018-11-12T16:38:36.547Z,96880.79
2018-11-12T16:41:04.883Z,96887.28
2018-11-12T16:43:33.207Z,96891.61
2018-11-12T16:46:01.592Z,96890.56
2018-11-12T16:48:29.884Z,96887.08
2018-11-12T16:50:58.185Z,96892.20
2018-11-12T16:53:26.527Z,96896.22
2018-11-12T16:55:54.818Z,96907.56
2018-11-12T16:58:23.127Z,96888.16
2018-11-12T17:00:51.428Z,96890.83
2018-11-12T17:03:19.748Z,96892.98
2018-11-12T17:05:48.040Z,96887.06
2018-11-12T17:08:16.339Z,96904.84
2018-11-12T17:10:44.636Z,96905.39
2018-11-12T17:13:12.960Z,96905.95
2018-11-12T17:15:41.271Z,96901.59
2018-11-12T17:18:09.585Z,96913.19
2018-11-12T17:20:37.912Z,96923.16
2018-11-12T17:23:06.354Z,96923.70
2018-11-12T17:25:34.611Z,96925.88
2018-11-12T17:28:02.923Z,96935.84
2018-11-12T17:30:31.239Z,96937.98
2018-11-12T17:32:59.540Z,96937.21
2018-11-12T17:35:27.884Z,96936.67
2018-11-12T17:37:56.176Z,96938.03
2018-11-12T17:40:25.863Z,96930.20
2018-11-12T17:42:54.829Z,96926.99
2018-11-12T17:45:24.575Z,96930.50
2018-11-12T17:47:53.845Z,96929.69
2018-11-12T17:50:22.211Z,96922.39
2018-11-12T17:52:50.573Z,96930.77
2018-11-12T17:55:18.892Z,96937.77
2018-11-12T17:57:47.187Z,96953.94
2018-11-12T18:00:23.948Z,96946.40
2018-11-12T18:02:52.250Z,96956.09
2018-11-12T18:05:20.604Z,96965.25
2018-11-12T18:07:49.941Z,96965.25
2018-11-12T18:10:18.553Z,96970.64
2018-11-12T18:12:46.899Z,96971.45
2018-11-12T18:15:16.479Z,96981.98
2018-11-12T18:17:44.893Z,96981.42
2018-11-12T18:20:15.871Z,96994.34
2018-11-12T18:22:44.167Z,96997.05
2018-11-12T18:25:12.879Z,96995.18
2018-11-12T18:27:41.175Z,96991.66
2018-11-12T18:30:13.659Z,96998.39
2018-11-12T18:32:42.383Z,97015.11
2018-11-12T18:35:10.895Z,97027.23
2018-11-12T18:37:39.278Z,97028.05
2018-11-12T18:40:09.539Z,97034.52
2018-11-12T18:42:37.835Z,97050.41
2018-11-12T18:45:09.044Z,97032.64
2018-11-12T18:47:37.377Z,97036.13
2018-11-12T18:50:07.452Z,97035.61
2018-11-12T18:52:35.781Z,97035.89
2018-11-12T18:55:04.360Z,97044.21
2018-11-12T18:57:32.741Z,97038.02
2018-11-12T19:00:01.019Z,97043.42
2018-11-12T19:02:29.352Z,97028.84
2018-11-12T19:04:57.759Z,97025.89
2018-11-12T19:07:26.103Z,97030.73
2018-11-12T19:09:54.419Z,97027.52
2018-11-12T19:12:22.747Z,97038.02
2018-11-12T19:14:51.063Z,97048.77
2018-11-12T19:17:19.895Z,97041.78
2018-11-12T19:19:48.200Z,97036.66
2018-11-12T19:22:16.540Z,97037.19
2018-11-12T19:24:44.892Z,97037.46
2018-11-12T19:27:13.325Z,97047.72
2018-11-12T19:29:41.708Z,97049.31
2018-11-12T19:32:10.024Z,97041.77
2018-11-12T19:34:38.324Z,97054.97
2018-11-12T19:37:06.950Z,97056.59
2018-11-12T19:39:35.263Z,97059.02
2018-11-12T19:42:04.215Z,97071.43
2018-11-12T19:44:32.888Z,97078.94
2018-11-12T19:47:01.220Z,97060.09
2018-11-12T19:49:29.527Z,97079.75
2018-11-12T19:51:57.957Z,97080.84
2018-11-12T19:54:26.209Z,97082.98
2018-11-12T19:56:54.551Z,97088.12
2018-11-12T19:59:23.056Z,97093.50
2018-11-12T20:01:51.493Z,97088.38
2018-11-12T20:04:19.898Z,97096.17
2018-11-12T20:06:48.575Z,97101.03
2018-11-12T20:09:16.887Z,97098.08
2018-11-12T20:11:46.011Z,97103.71
2018-11-12T20:14:14.307Z,97110.17
2018-11-12T20:16:42.641Z,97109.91
2018-11-12T20:19:10.944Z,97118.50
2018-11-12T20:21:39.275Z,97115.28
2018-11-12T20:24:07.590Z,97124.95
2018-11-12T20:26:36.052Z,97133.84
2018-11-12T20:29:04.382Z,97143.02
2018-11-12T20:31:32.790Z,97136.80
2018-11-12T20:34:01.214Z,97146.77
2018-11-12T20:36:29.540Z,97146.98
2018-11-12T20:38:57.898Z,97137.61
2018-11-12T20:41:27.191Z,97135.44
2018-11-12T20:43:55.523Z,97128.39
2018-11-12T20:46:23.996Z,97131.81
2018-11-12T20:48:52.323Z,97134.52
2018-11-12T20:51:20.695Z,97125.63
2018-11-12T20:53:49.069Z,97124.52
2018-11-12T20:56:17.678Z,97126.63
2018-11-12T20:58:46.023Z,97133.35
2018-11-12T21:01:14.318Z,97128.23
2018-11-12T21:03:42.631Z,97124.97
2018-11-12T21:06:10.944Z,97118.78
2018-11-12T21:08:39.304Z,97126.83
2018-11-12T21:11:07.611Z,97120.39
2018-11-12T21:13:36.055Z,97118.23
2018-11-12T21:16:04.388Z,97114.47
2018-11-12T21:18:32.723Z,97101.32
2018-11-12T21:21:01.031Z,97105.31
2018-11-12T21:23:29.445Z,97111.73
2018-11-12T21:25:58.156Z,97104.45
2018-11-12T21:28:26.495Z,97110.86
2018-11-12T21:30:54.795Z,97111.95
2018-11-12T21:33:23.087Z,97122.65
2018-11-12T21:35:51.636Z,97127.47
2018-11-12T21:38:19.958Z,97130.94
2018-11-12T21:40:48.336Z,97130.66
2018-11-12T21:43:16.783Z,97139.22
2018-11-12T21:45:45.004Z,97138.58
2018-11-12T21:48:13.313Z,97135.89
2018-11-12T21:50:41.665Z,97130.23
2018-11-12T21:53:09.984Z,97140.73
2018-11-12T21:55:38.320Z,97144.91
2018-11-12T21:58:06.636Z,97154.55
2018-11-12T22:00:34.959Z,97149.17
2018-11-12T22:03:04.467Z,97152.59
2018-11-12T22:05:33.582Z,97162.56
2018-11-12T22:08:02.484Z,97160.56
2018-11-12T22:10:30.808Z,97147.66
2018-11-12T22:12:59.087Z,97144.69
2018-11-12T22:15:27.407Z,97140.08
2018-11-12T22:17:55.995Z,97151.92
2018-11-12T22:20:25.709Z,97165.35
2018-11-12T22:22:54.007Z,97177.87
2018-11-12T22:25:22.988Z,97183.47
2018-11-12T22:27:52.079Z,97188.31
2018-11-12T22:30:24.684Z,97191.48
2018-11-12T22:32:53.775Z,97190.42
2018-11-12T22:35:22.097Z,97201.17
2018-11-12T22:37:50.527Z,97202.74
2018-11-12T22:40:19.479Z,97188.17
2018-11-12T22:42:49.043Z,97188.73
2018-11-12T22:45:19.026Z,97184.44
2018-11-12T22:47:47.806Z,97197.33
2018-11-12T22:50:16.107Z,97207.53
2018-11-12T22:52:45.027Z,97216.65
2018-11-12T22:55:14.471Z,97222.06
2018-11-12T22:57:42.783Z,97218.99
2018-11-12T23:00:18.716Z,97209.54
2018-11-12T23:02:47.339Z,97206.61
2018-11-12T23:05:16.700Z,97197.97
2018-11-12T23:07:45.773Z,97182.80
2018-11-12T23:10:14.363Z,97178.90
2018-11-12T23:12:42.704Z,97173.87
2018-11-12T23:15:12.048Z,97167.67
2018-11-12T23:17:40.647Z,97164.70
2018-11-12T23:20:15.371Z,97158.23
2018-11-12T23:22:44.365Z,97174.92
2018-11-12T23:25:12.975Z,97167.45
2018-11-12T23:27:42.158Z,97173.30
2018-11-12T23:30:14.107Z,97166.63
2018-11-12T23:32:42.439Z,97163.47
2018-11-12T23:35:12.451Z,97165.98
2018-11-12T23:37:41.328Z,97158.49
2018-11-12T23:40:10.398Z,97167.98
2018-11-12T23:42:38.748Z,97175.03
2018-11-12T23:45:07.894Z,97191.48
2018-11-12T23:47:36.879Z,97201.59
2018-11-12T23:50:07.126Z,97211.34
2018-11-12T23:52:35.947Z,97212.56
2018-11-12T23:55:04.306Z,97215.01
2018-11-12T23:57:32.652Z,97224.80
